Time;durP1;ratioP1;P1;durP2;ratioP2;P2;SDS_P1;SDS_P2;PMS_P1;PMS_P2;Temp;Humidity;BMP_temperature;BMP_pressure;BME280_temperature;BME280_humidity;BME280_pressure;Samples;Min_cycle;Max_cycle;Signal;HPM_P1;HPM_P2
2021/12/19 00:04:25;;;;;;;45.58;20.73;;;3.40;99.90;;;;;;5026197;28;20065;-79
2021/12/19 00:09:35;;;;;;;41.00;18.90;;;3.40;99.90;;;;;;4952290;28;20359;-80
2021/12/19 00:12:04;;;;;;;43.80;19.08;;;3.40;99.90;;;;;;4960178;29;20085;-80
2021/12/19 00:14:30;;;;;;;;;;;3.30;99.90;;;;;;4940581;28;20046;-81
2021/12/19 00:16:56;;;;;;;45.63;19.23;;;3.40;99.90;;;;;;4949265;28;20369;-80
2021/12/19 00:19:25;;;;;;;43.17;20.02;;;3.30;99.90;;;;;;4974526;28;20098;-80
2021/12/19 00:21:50;;;;;;;43.13;19.15;;;3.30;99.90;;;;;;4962317;28;20039;-80
2021/12/19 00:24:18;;;;;;;44.70;20.08;;;3.20;99.90;;;;;;4962094;29;20106;-80
2021/12/19 00:26:45;;;;;;;43.55;19.88;;;3.10;99.90;;;;;;4961090;28;20077;-80
2021/12/19 00:29:11;;;;;;;44.65;19.52;;;3.10;99.90;;;;;;4961482;28;20035;-80
2021/12/19 00:31:37;;;;;;;46.33;21.40;;;3.20;99.90;;;;;;4992743;28;20095;-80
2021/12/19 00:34:04;;;;;;;45.47;20.70;;;3.20;99.90;;;;;;4976979;28;20042;-80
2021/12/19 00:36:30;;;;;;;46.70;21.83;;;3.10;99.90;;;;;;4961498;29;20065;-79
2021/12/19 00:38:57;;;;;;;45.10;21.15;;;3.10;99.90;;;;;;4961681;28;20027;-79
2021/12/19 00:41:23;;;;;;;43.28;18.63;;;3.10;99.90;;;;;;4961789;29;20345;-79
2021/12/19 00:44:06;;;;;;;46.03;20.15;;;3.00;99.90;;;;;;4962202;29;20038;-80
2021/12/19 00:46:42;;;;;;;41.60;18.23;;;3.00;99.90;;;;;;4992408;28;20042;-79
2021/12/19 00:49:07;;;;;;;43.13;18.92;;;2.90;99.90;;;;;;4960368;28;20073;-80
2021/12/19 00:51:36;;;;;;;40.90;18.63;;;3.00;99.90;;;;;;4960462;29;20027;-80
2021/12/19 00:54:09;;;;;;;;;;;3.00;99.90;;;;;;4993143;28;20360;-80
2021/12/19 00:56:38;;;;;;;47.70;20.17;;;2.90;99.90;;;;;;4953115;28;19918;-79
2021/12/19 00:59:04;;;;;;;50.38;19.73;;;3.00;99.90;;;;;;4947716;28;20134;-80
2021/12/19 01:01:34;;;;;;;45.85;20.77;;;2.90;99.90;;;;;;4953179;28;20119;-80
2021/12/19 01:03:59;;;;;;;49.15;21.08;;;3.00;99.90;;;;;;4969799;28;20062;-81
2021/12/19 01:06:29;;;;;;;57.17;22.27;;;3.00;99.90;;;;;;4955943;29;20051;-80
2021/12/19 01:08:55;;;;;;;48.38;20.58;;;3.10;99.90;;;;;;4950202;29;20091;-80
2021/12/19 01:11:21;;;;;;;46.53;20.90;;;3.10;99.90;;;;;;4943870;29;20024;-81
2021/12/19 01:13:47;;;;;;;49.38;20.83;;;3.10;99.90;;;;;;4943448;29;20368;-80
2021/12/19 01:16:15;;;;;;;47.80;21.15;;;3.20;99.90;;;;;;4942170;29;20151;-81
2021/12/19 01:18:44;;;;;;;45.60;19.95;;;3.20;99.90;;;;;;4943687;29;20318;-80
2021/12/19 01:21:10;;;;;;;46.67;21.33;;;3.20;99.90;;;;;;4945078;29;20096;-80
2021/12/19 01:23:38;;;;;;;46.53;19.65;;;3.30;99.90;;;;;;4942722;29;20030;-79
2021/12/19 01:26:04;;;;;;;40.92;18.90;;;3.30;99.90;;;;;;4942474;29;20023;-82
2021/12/19 01:28:30;;;;;;;46.67;20.30;;;3.40;99.90;;;;;;4948585;28;20023;-81
2021/12/19 01:30:56;;;;;;;45.80;21.48;;;3.40;99.90;;;;;;4991713;28;20199;-81
2021/12/19 01:33:22;;;;;;;46.45;20.58;;;3.40;99.90;;;;;;4975363;28;20077;-81
2021/12/19 01:35:48;;;;;;;43.13;19.95;;;3.30;99.90;;;;;;4960929;28;20313;-80
2021/12/19 01:38:13;;;;;;;43.70;19.50;;;3.40;99.90;;;;;;4955514;28;20396;-79
2021/12/19 01:40:39;;;;;;;45.25;20.95;;;3.40;99.90;;;;;;4956049;28;20047;-80
2021/12/19 01:43:05;;;;;;;46.95;21.75;;;3.30;99.90;;;;;;4960750;29;20039;-79
2021/12/19 01:45:38;;;;;;;51.10;22.50;;;3.30;99.90;;;;;;4974602;28;20031;-79
2021/12/19 01:48:07;;;;;;;51.25;22.48;;;3.30;99.90;;;;;;4953102;28;20317;-80
2021/12/19 01:50:37;;;;;;;46.38;21.10;;;3.30;99.90;;;;;;4962923;29;20445;-79
2021/12/19 01:53:08;;;;;;;48.10;21.25;;;3.30;99.90;;;;;;4955782;29;20028;-80
2021/12/19 01:55:34;;;;;;;51.13;21.35;;;3.40;99.90;;;;;;4945367;29;20055;-79
2021/12/19 01:58:01;;;;;;;50.13;22.20;;;3.30;99.90;;;;;;4963684;28;20051;-79
2021/12/19 02:00:57;;;;;;;54.00;22.50;;;3.40;99.90;;;;;;4959522;28;20047;-78
2021/12/19 02:03:23;;;;;;;46.60;21.08;;;3.40;99.90;;;;;;4945437;29;20039;-80
2021/12/19 02:05:50;;;;;;;56.72;23.67;;;3.30;99.90;;;;;;4958356;29;20043;-81
2021/12/19 02:08:17;;;;;;;50.55;22.35;;;3.10;99.90;;;;;;4962315;29;20136;-80
2021/12/19 02:10:46;;;;;;;50.10;21.52;;;3.00;99.90;;;;;;4963290;29;20039;-80
2021/12/19 02:13:13;;;;;;;48.80;21.23;;;3.00;99.90;;;;;;4963265;28;20055;-79
2021/12/19 02:15:41;;;;;;;53.10;22.38;;;3.10;99.90;;;;;;4957306;28;20039;-80
2021/12/19 02:18:19;;;;;;;48.97;22.80;;;3.20;99.90;;;;;;4961419;28;20259;-79
2021/12/19 02:20:58;;;;;;;54.35;22.63;;;3.10;99.90;;;;;;4995713;28;20054;-80
2021/12/19 02:23:27;;;;;;;50.28;21.77;;;3.10;99.90;;;;;;4960110;28;20035;-80
2021/12/19 02:25:56;;;;;;;;;;;3.10;99.90;;;;;;4976724;28;20028;-80
2021/12/19 02:28:22;;;;;;;52.97;21.48;;;3.00;99.90;;;;;;4944362;29;19902;-79
2021/12/19 02:30:49;;;;;;;54.70;22.67;;;2.90;99.90;;;;;;4950952;28;20102;-80
2021/12/19 02:33:24;;;;;;;50.67;22.17;;;3.00;99.90;;;;;;4946788;28;20368;-80
2021/12/19 02:36:23;;;;;;;55.05;22.45;;;3.10;99.90;;;;;;4976593;28;20155;-80
2021/12/19 02:49:19;;;;;;;55.33;22.42;;;3.10;99.90;;;;;;4976788;28;20027;-79
2021/12/19 02:51:46;;;;;;;56.83;23.73;;;3.20;99.90;;;;;;4964079;28;20031;-79
2021/12/19 02:54:12;;;;;;;52.88;22.08;;;3.10;99.90;;;;;;4953938;29;20035;-79
2021/12/19 02:56:38;;;;;;;54.22;23.20;;;3.10;99.90;;;;;;4968550;28;20053;-79
2021/12/19 02:59:06;;;;;;;55.75;22.55;;;3.20;99.90;;;;;;4980410;28;20287;-80
2021/12/19 03:01:35;;;;;;;52.15;23.27;;;3.20;99.90;;;;;;4980083;28;20042;-80
2021/12/19 03:04:00;;;;;;;;;;;3.20;99.90;;;;;;4981424;28;20221;-79
2021/12/19 03:06:26;;;;;;;49.85;21.17;;;3.20;99.90;;;;;;4973679;28;19973;-79
2021/12/19 03:09:21;;;;;;;52.00;21.70;;;3.20;99.90;;;;;;4956869;28;20084;-80
2021/12/19 03:12:14;;;;;;;50.10;21.15;;;3.30;99.90;;;;;;4943235;29;20066;-79
2021/12/19 03:20:11;;;;;;;50.50;20.30;;;3.20;99.90;;;;;;4962643;29;20035;-80
2021/12/19 03:22:37;;;;;;;44.40;19.58;;;3.10;99.90;;;;;;4962266;28;20163;-80
2021/12/19 03:25:03;;;;;;;45.05;19.70;;;3.00;99.90;;;;;;4961621;28;20023;-78
2021/12/19 03:27:29;;;;;;;45.38;19.80;;;3.10;99.90;;;;;;4961969;28;20053;-81
2021/12/19 03:29:58;;;;;;;44.55;19.60;;;3.10;99.90;;;;;;4956304;28;20318;-79
2021/12/19 03:32:27;;;;;;;;;;;3.20;99.90;;;;;;4982069;28;20221;-78
2021/12/19 03:34:53;;;;;;;49.17;19.85;;;3.20;99.90;;;;;;4960704;29;19933;-81
2021/12/19 03:37:20;;;;;;;48.45;20.05;;;3.10;99.90;;;;;;4956435;29;20019;-81
2021/12/19 03:42:30;;;;;;;46.58;19.08;;;3.10;99.90;;;;;;4956402;29;20114;-79
2021/12/19 03:45:08;;;;;;;45.08;18.25;;;3.10;99.90;;;;;;4962367;29;20034;-80
2021/12/19 03:47:34;;;;;;;48.35;18.63;;;3.10;99.90;;;;;;4948641;28;20035;-79
2021/12/19 03:50:02;;;;;;;39.55;16.58;;;3.10;99.90;;;;;;4942310;29;20027;-80
2021/12/19 03:52:31;;;;;;;44.03;17.73;;;3.00;99.90;;;;;;4974129;28;20099;-81
2021/12/19 03:54:58;;;;;;;38.80;16.38;;;3.20;99.90;;;;;;4942827;29;20046;-79
2021/12/19 03:57:24;;;;;;;38.88;15.70;;;3.30;99.90;;;;;;4955039;28;20061;-80
2021/12/19 03:59:52;;;;;;;42.00;17.40;;;3.20;99.90;;;;;;4962000;29;20083;-79
2021/12/19 04:02:25;;;;;;;39.15;16.55;;;3.20;99.90;;;;;;4961864;29;20034;-80
2021/12/19 04:04:53;;;;;;;39.75;16.63;;;3.20;99.90;;;;;;4962253;28;20096;-81
2021/12/19 04:07:20;;;;;;;38.60;15.63;;;3.10;99.90;;;;;;4962135;28;20019;-80
2021/12/19 04:09:47;;;;;;;37.78;15.30;;;3.10;99.90;;;;;;4961560;28;20046;-80
2021/12/19 04:12:13;;;;;;;31.77;14.70;;;3.00;99.90;;;;;;4961854;28;20392;-80
2021/12/19 04:14:45;;;;;;;41.47;16.90;;;3.00;99.90;;;;;;4956453;28;20042;-80
2021/12/19 04:17:13;;;;;;;38.78;15.00;;;3.00;99.90;;;;;;4952868;29;20130;-80
2021/12/19 04:19:42;;;;;;;39.17;15.60;;;3.10;99.90;;;;;;4962418;29;20220;-78
2021/12/19 04:22:10;;;;;;;;;;;3.10;99.90;;;;;;4963856;28;20098;-80
2021/12/19 04:24:36;;;;;;;34.85;14.63;;;3.10;99.90;;;;;;4956193;28;19906;-79
2021/12/19 04:27:05;;;;;;;35.33;14.88;;;3.00;99.90;;;;;;4960738;29;20306;-81
2021/12/19 04:29:31;;;;;;;;;;;2.90;99.90;;;;;;4955486;29;20031;-79
2021/12/19 04:31:59;;;;;;;30.73;12.90;;;2.90;99.90;;;;;;4941817;29;19907;-80
2021/12/19 04:34:25;;;;;;;;;;;2.90;99.90;;;;;;4941333;29;20411;-79
2021/12/19 04:36:58;;;;;;;31.08;11.90;;;2.90;99.90;;;;;;4942064;29;19911;-80
2021/12/19 04:39:38;;;;;;;30.85;13.65;;;2.80;99.90;;;;;;4941636;29;20199;-80
2021/12/19 04:50:55;;;;;;;35.38;14.45;;;2.70;99.90;;;;;;4960991;28;20039;-79
2021/12/19 04:58:12;;;;;;;26.48;11.57;;;2.70;99.90;;;;;;4953025;28;19907;-80
2021/12/19 05:00:55;;;;;;;23.45;10.73;;;2.60;99.90;;;;;;4959627;29;20043;-79
2021/12/19 05:06:17;;;;;;;27.45;11.73;;;2.70;99.90;;;;;;4953761;29;20027;-78
2021/12/19 05:14:22;;;;;;;24.20;10.43;;;2.80;99.90;;;;;;4940672;28;20063;-79
2021/12/19 05:16:49;;;;;;;24.48;11.68;;;2.80;99.90;;;;;;4940375;29;20218;-79
2021/12/19 05:19:24;;;;;;;26.13;11.25;;;2.90;99.90;;;;;;4941445;29;20191;-79
2021/12/19 05:21:56;;;;;;;27.60;11.05;;;2.90;99.90;;;;;;4948587;28;20031;-78
2021/12/19 05:27:09;;;;;;;26.67;11.82;;;2.90;99.90;;;;;;4956920;28;20039;-80
2021/12/19 05:29:36;;;;;;;27.02;11.48;;;3.00;99.90;;;;;;4990946;28;20023;-80
2021/12/19 05:32:03;;;;;;;26.58;11.30;;;2.90;99.90;;;;;;4963811;29;20165;-80
2021/12/19 05:34:30;;;;;;;25.80;11.70;;;2.90;99.90;;;;;;4982356;28;20039;-79
2021/12/19 05:45:14;;;;;;;27.67;11.55;;;2.90;99.90;;;;;;4955966;28;20098;-80
2021/12/19 05:47:45;;;;;;;29.15;11.43;;;2.90;99.90;;;;;;4962316;28;20035;-80
2021/12/19 05:50:13;;;;;;;27.65;10.95;;;2.90;99.90;;;;;;4962897;28;20062;-79
2021/12/19 05:52:39;;;;;;;28.15;10.85;;;2.80;99.90;;;;;;4961747;29;20031;-79
2021/12/19 05:55:06;;;;;;;25.75;11.07;;;2.70;99.90;;;;;;4963723;28;20042;-78
2021/12/19 05:57:33;;;;;;;24.52;10.95;;;2.70;99.90;;;;;;4963104;28;20043;-79
2021/12/19 05:59:58;;;;;;;26.10;10.75;;;2.70;99.90;;;;;;4962962;29;20104;-80
2021/12/19 06:02:25;;;;;;;23.52;10.27;;;2.60;99.90;;;;;;4990908;28;20027;-80
2021/12/19 06:04:54;;;;;;;24.05;9.68;;;2.60;99.90;;;;;;5045846;28;20082;-80
2021/12/19 06:07:20;;;;;;;26.75;10.75;;;2.60;99.90;;;;;;4957526;28;20042;-78
2021/12/19 06:09:49;;;;;;;22.02;9.60;;;2.60;99.90;;;;;;4961815;28;20229;-79
2021/12/19 06:12:15;;;;;;;23.42;9.52;;;2.50;99.90;;;;;;4961939;28;20073;-80
2021/12/19 06:14:43;;;;;;;24.75;10.48;;;2.60;99.90;;;;;;4962849;29;20031;-79
2021/12/19 06:17:09;;;;;;;22.77;9.18;;;2.50;99.90;;;;;;4963305;28;20115;-79
2021/12/19 06:19:36;;;;;;;24.80;10.10;;;2.60;99.90;;;;;;4962613;29;20229;-79
2021/12/19 06:22:06;;;;;;;21.90;9.13;;;2.60;99.90;;;;;;4962525;28;20031;-79
2021/12/19 06:24:33;;;;;;;21.48;8.90;;;2.50;99.90;;;;;;4961181;29;20054;-79
2021/12/19 06:27:00;;;;;;;18.70;7.88;;;2.50;99.90;;;;;;4961389;29;20116;-79
2021/12/19 06:29:30;;;;;;;17.15;8.30;;;2.50;99.90;;;;;;4955427;28;20039;-79
2021/12/19 06:31:57;;;;;;;17.92;7.78;;;2.50;99.90;;;;;;4937681;28;20059;-78
2021/12/19 06:34:23;;;;;;;17.48;7.85;;;2.50;99.90;;;;;;4953104;28;20039;-78
2021/12/19 06:36:53;;;;;;;17.63;7.22;;;2.50;99.90;;;;;;4942585;28;20042;-79
2021/12/19 06:39:23;;;;;;;15.30;6.45;;;2.50;99.90;;;;;;4948317;28;20039;-81
2021/12/19 06:41:49;;;;;;;16.20;6.55;;;2.50;99.90;;;;;;4959637;29;20042;-80
2021/12/19 06:44:14;;;;;;;13.82;6.32;;;2.60;99.90;;;;;;4961253;29;20050;-79
2021/12/19 06:46:43;;;;;;;14.30;6.65;;;2.60;99.90;;;;;;4956897;28;20078;-79
2021/12/19 06:49:09;;;;;;;12.75;5.95;;;2.60;99.90;;;;;;4942088;29;20313;-80
2021/12/19 06:51:35;;;;;;;15.77;7.00;;;2.50;99.90;;;;;;4956822;29;20055;-79
2021/12/19 06:54:02;;;;;;;21.27;9.05;;;2.30;99.90;;;;;;4941641;29;20039;-79
2021/12/19 06:56:29;;;;;;;21.27;9.48;;;2.30;99.90;;;;;;4964497;28;20035;-80
2021/12/19 06:58:55;;;;;;;20.30;8.65;;;2.20;99.90;;;;;;4961310;28;20045;-79
2021/12/19 07:01:20;;;;;;;22.48;8.85;;;2.20;99.90;;;;;;4961878;28;20066;-79
2021/12/19 07:03:46;;;;;;;19.25;8.57;;;2.20;99.90;;;;;;4961586;28;20031;-81
2021/12/19 07:06:13;;;;;;;21.30;8.63;;;2.20;99.90;;;;;;4962622;29;20056;-80
2021/12/19 07:08:39;;;;;;;16.52;7.45;;;2.10;99.90;;;;;;4977366;28;20031;-81
2021/12/19 07:11:05;;;;;;;18.85;9.15;;;2.10;99.90;;;;;;4993725;28;20358;-81
2021/12/19 07:13:30;;;;;;;23.63;9.70;;;2.10;99.90;;;;;;4962063;29;20044;-78
2021/12/19 07:15:56;;;;;;;20.23;8.25;;;2.10;99.90;;;;;;4992748;28;20101;-81
2021/12/19 07:18:23;;;;;;;18.90;8.05;;;2.10;99.90;;;;;;4962513;29;20041;-80
2021/12/19 07:20:49;;;;;;;18.23;8.15;;;2.00;99.90;;;;;;4956565;28;20361;-79
2021/12/19 07:23:23;;;;;;;19.45;7.93;;;2.10;99.90;;;;;;4928043;28;20257;-78
2021/12/19 07:25:50;;;;;;;16.08;7.60;;;2.10;99.90;;;;;;4972618;29;20031;-78
2021/12/19 07:28:22;;;;;;;19.05;8.18;;;2.00;99.90;;;;;;4974765;29;20011;-79
2021/12/19 07:30:48;;;;;;;16.35;7.70;;;2.00;99.90;;;;;;4990077;28;20270;-80
2021/12/19 07:33:17;;;;;;;15.30;7.32;;;2.00;99.90;;;;;;5043680;28;20100;-80
2021/12/19 07:35:45;;;;;;;16.63;6.95;;;2.00;99.90;;;;;;5041702;28;20064;-80
2021/12/19 07:38:17;;;;;;;19.15;7.25;;;1.90;99.90;;;;;;5043566;28;20088;-80
2021/12/19 07:40:46;;;;;;;16.73;7.38;;;1.90;99.90;;;;;;5041840;28;20045;-79
2021/12/19 07:43:13;;;;;;;14.35;6.43;;;1.90;99.90;;;;;;5042042;28;20315;-78
2021/12/19 07:45:40;;;;;;;15.90;6.72;;;2.00;99.90;;;;;;5042489;28;20037;-80
2021/12/19 07:48:05;;;;;;;15.00;6.82;;;2.00;99.90;;;;;;5042283;28;20394;-80
2021/12/19 07:50:32;;;;;;;15.98;7.72;;;1.90;99.90;;;;;;5041405;28;20025;-80
2021/12/19 07:52:58;;;;;;;15.82;6.85;;;2.00;99.90;;;;;;5035875;28;20032;-78
2021/12/19 07:55:25;;;;;;;15.80;6.85;;;1.90;99.90;;;;;;5041236;28;20097;-77
2021/12/19 07:57:51;;;;;;;16.98;6.10;;;1.90;99.90;;;;;;5038890;28;20172;-78
2021/12/19 08:00:19;;;;;;;13.93;6.20;;;1.90;99.90;;;;;;5040757;28;20021;-80
2021/12/19 08:02:45;;;;;;;13.82;6.05;;;1.90;99.90;;;;;;5056393;28;20657;-79
2021/12/19 08:05:12;;;;;;;14.20;5.68;;;1.90;99.90;;;;;;5041124;28;20224;-79
2021/12/19 08:07:39;;;;;;;12.68;5.70;;;1.90;99.90;;;;;;5040859;28;20033;-78
2021/12/19 08:12:33;;;;;;;14.80;5.95;;;2.00;99.90;;;;;;5044315;28;20323;-78
2021/12/19 08:14:59;;;;;;;13.50;5.75;;;2.00;99.90;;;;;;5059461;28;20071;-79
2021/12/19 08:17:26;;;;;;;13.75;5.60;;;2.00;99.90;;;;;;5060877;28;20099;-80
2021/12/19 08:19:52;;;;;;;14.02;6.13;;;2.10;99.90;;;;;;5059116;28;20039;-79
2021/12/19 08:22:19;;;;;;;15.05;6.60;;;2.10;99.90;;;;;;5060009;28;20024;-80
2021/12/19 08:24:47;;;;;;;13.45;5.88;;;2.20;99.90;;;;;;5059469;28;20025;-81
2021/12/19 08:27:13;;;;;;;12.98;5.15;;;2.20;99.90;;;;;;5070589;28;20032;-81
2021/12/19 08:29:38;;;;;;;13.35;5.70;;;2.10;99.90;;;;;;5059371;28;20040;-79
2021/12/19 08:32:05;;;;;;;12.10;5.35;;;2.20;99.90;;;;;;5059305;28;20093;-80
2021/12/19 08:34:30;;;;;;;12.05;4.82;;;2.30;99.90;;;;;;5053458;28;20029;-80
2021/12/19 08:36:57;;;;;;;11.85;5.30;;;2.30;99.90;;;;;;5059192;28;20025;-78
2021/12/19 08:39:23;;;;;;;11.85;4.60;;;2.30;99.90;;;;;;5057365;28;20033;-79
2021/12/19 08:41:49;;;;;;;12.73;4.97;;;2.40;99.90;;;;;;5056126;28;20029;-78
2021/12/19 08:44:15;;;;;;;11.43;5.38;;;2.40;99.90;;;;;;5059381;28;20040;-79
2021/12/19 08:46:41;;;;;;;11.18;4.50;;;2.40;99.90;;;;;;5054946;28;20040;-79
2021/12/19 08:49:08;;;;;;;11.30;4.65;;;2.40;99.90;;;;;;5061246;28;20240;-79
2021/12/19 08:51:35;;;;;;;10.40;4.53;;;2.50;99.90;;;;;;5052123;28;20123;-79
2021/12/19 08:54:01;;;;;;;10.82;4.80;;;2.60;99.90;;;;;;5024187;28;20040;-79
2021/12/19 08:56:28;;;;;;;9.65;4.60;;;2.50;99.90;;;;;;5080572;28;20020;-78
2021/12/19 08:58:55;;;;;;;9.27;4.28;;;2.60;99.90;;;;;;5062555;28;20044;-78
2021/12/19 09:01:21;;;;;;;10.57;4.72;;;2.60;99.90;;;;;;5065511;28;20066;-78
2021/12/19 09:04:06;;;;;;;9.55;4.32;;;2.60;99.90;;;;;;5066257;28;20020;-78
2021/12/19 09:06:31;;;;;;;9.85;4.15;;;2.70;99.90;;;;;;5066157;28;20059;-78
2021/12/19 09:08:58;;;;;;;9.73;4.47;;;2.70;99.90;;;;;;5065702;28;20055;-78
2021/12/19 09:11:23;;;;;;;11.77;4.88;;;2.60;99.90;;;;;;5064657;28;20029;-79
2021/12/19 09:13:49;;;;;;;9.65;4.45;;;2.70;99.90;;;;;;5065063;28;20064;-78
2021/12/19 09:16:15;;;;;;;9.63;4.50;;;2.70;99.90;;;;;;5065532;28;20079;-78
2021/12/19 09:18:42;;;;;;;11.52;4.78;;;2.80;99.90;;;;;;5065184;28;20069;-78
2021/12/19 09:21:10;;;;;;;10.13;4.28;;;2.80;99.90;;;;;;5060921;28;20059;-78
2021/12/19 09:23:36;;;;;;;10.80;5.17;;;2.70;99.90;;;;;;5054670;28;20024;-79
2021/12/19 09:26:03;;;;;;;10.77;4.13;;;2.90;99.90;;;;;;5060063;28;20058;-77
2021/12/19 09:28:31;;;;;;;9.25;4.60;;;2.90;99.90;;;;;;5064366;28;20057;-80
2021/12/19 09:30:57;;;;;;;8.43;3.58;;;3.00;99.90;;;;;;5055852;28;20327;-79
2021/12/19 09:33:23;;;;;;;10.13;4.30;;;3.10;99.90;;;;;;5043814;28;20079;-79
2021/12/19 09:35:53;;;;;;;8.85;3.70;;;3.00;99.90;;;;;;5043166;28;20064;-79
2021/12/19 09:38:20;;;;;;;8.38;3.92;;;3.10;99.90;;;;;;5042506;28;20338;-80
2021/12/19 09:40:47;;;;;;;9.73;3.95;;;3.00;99.90;;;;;;5034046;28;20318;-79
2021/12/19 09:46:04;;;;;;;8.50;3.70;;;3.10;99.90;;;;;;5041785;28;20037;-80
2021/12/19 09:48:29;;;;;;;7.15;3.00;;;3.20;99.90;;;;;;5045193;28;20100;-79
2021/12/19 09:50:55;;;;;;;7.03;3.38;;;3.10;99.90;;;;;;5042275;28;20052;-80
2021/12/19 09:53:21;;;;;;;5.90;3.22;;;3.20;99.90;;;;;;5041884;28;20048;-79
2021/12/19 09:55:47;;;;;;;4.05;2.28;;;3.20;99.90;;;;;;5040722;28;20316;-80
2021/12/19 09:58:13;;;;;;;5.13;2.45;;;3.30;99.90;;;;;;5025410;28;20044;-80
2021/12/19 10:00:39;;;;;;;4.95;2.70;;;3.40;99.90;;;;;;5037819;28;20052;-79
2021/12/19 10:03:04;;;;;;;5.38;2.63;;;3.40;99.90;;;;;;4961648;29;20089;-79
2021/12/19 10:05:30;;;;;;;6.25;2.70;;;3.40;99.90;;;;;;4961248;28;20031;-79
2021/12/19 10:08:00;;;;;;;5.40;2.58;;;3.60;99.90;;;;;;4976025;28;20069;-79
2021/12/19 10:10:54;;;;;;;7.07;2.70;;;3.50;99.90;;;;;;4968782;28;20054;-79
2021/12/19 10:13:35;;;;;;;5.85;2.88;;;3.50;99.90;;;;;;4970504;28;20356;-79
2021/12/19 10:16:21;;;;;;;6.80;2.72;;;3.60;99.90;;;;;;4997568;28;20163;-80
2021/12/19 10:18:51;;;;;;;7.07;2.88;;;3.80;99.90;;;;;;5062599;28;20028;-80
2021/12/19 10:21:20;;;;;;;6.53;2.88;;;3.70;99.90;;;;;;5061233;28;20045;-80
2021/12/19 10:23:46;;;;;;;4.30;2.27;;;3.80;99.90;;;;;;5061858;28;20032;-78
2021/12/19 10:26:12;;;;;;;6.70;2.70;;;3.80;99.90;;;;;;5063368;28;20319;-78
2021/12/19 10:28:53;;;;;;;5.63;2.58;;;3.70;99.90;;;;;;5063247;28;20043;-78
2021/12/19 10:31:20;;;;;;;4.18;2.13;;;3.70;99.90;;;;;;5058503;28;20041;-80
2021/12/19 10:33:47;;;;;;;7.43;3.28;;;3.80;99.90;;;;;;5062909;28;20315;-79
2021/12/19 10:36:23;;;;;;;7.55;3.45;;;3.90;99.90;;;;;;5097336;28;20215;-79
2021/12/19 10:38:52;;;;;;;4.95;2.40;;;3.90;99.90;;;;;;5064653;28;20048;-78
2021/12/19 10:41:21;;;;;;;4.95;2.20;;;4.00;99.90;;;;;;5104279;28;20107;-78
2021/12/19 10:43:59;;;;;;;3.95;1.98;;;4.20;99.90;;;;;;5110536;28;20040;-79
2021/12/19 10:46:29;;;;;;;5.97;2.70;;;4.10;99.90;;;;;;5077308;28;20041;-79
2021/12/19 10:48:56;;;;;;;4.88;2.08;;;4.00;99.90;;;;;;5056589;28;20026;-79
2021/12/19 10:51:22;;;;;;;4.35;2.13;;;4.00;99.90;;;;;;5044161;28;20105;-79
2021/12/19 10:53:52;;;;;;;3.03;1.75;;;4.00;99.90;;;;;;5044486;28;20037;-80
2021/12/19 10:56:21;;;;;;;3.65;1.73;;;3.90;99.90;;;;;;5050191;28;20096;-79
2021/12/19 10:58:52;;;;;;;4.40;2.00;;;4.00;99.90;;;;;;5064221;28;20109;-79
2021/12/19 11:01:29;;;;;;;4.45;2.28;;;4.20;99.90;;;;;;5067063;28;20223;-79
2021/12/19 11:04:08;;;;;;;3.58;1.98;;;4.20;99.90;;;;;;5068965;28;20196;-78
2021/12/19 11:06:39;;;;;;;6.00;2.70;;;4.20;99.90;;;;;;5063147;28;20025;-78
2021/12/19 11:09:12;;;;;;;5.60;3.22;;;4.20;99.90;;;;;;5063478;28;20088;-79
2021/12/19 11:12:00;;;;;;;4.10;2.03;;;4.10;99.90;;;;;;5063475;28;20029;-79
2021/12/19 11:14:28;;;;;;;3.40;1.65;;;4.10;99.90;;;;;;5075309;28;20072;-79
2021/12/19 11:16:56;;;;;;;3.10;1.65;;;3.80;99.90;;;;;;5098428;28;20138;-78
2021/12/19 11:19:23;;;;;;;3.55;1.95;;;3.90;99.90;;;;;;5082640;28;20029;-80
2021/12/19 11:21:49;;;;;;;3.65;1.75;;;3.90;99.90;;;;;;5115638;28;20196;-81
2021/12/19 11:24:18;;;;;;;3.22;1.70;;;3.90;99.90;;;;;;5099526;28;20028;-79
2021/12/19 11:26:47;;;;;;;3.47;1.98;;;3.90;99.90;;;;;;5079404;28;20092;-79
2021/12/19 11:29:14;;;;;;;3.97;2.00;;;4.00;99.90;;;;;;5057554;28;20028;-79
2021/12/19 11:31:44;;;;;;;4.90;1.92;;;3.90;99.90;;;;;;5060087;28;20107;-80
2021/12/19 11:34:26;;;;;;;4.07;1.63;;;4.10;99.90;;;;;;5058339;28;20033;-78
2021/12/19 11:37:07;;;;;;;3.10;1.60;;;4.00;99.90;;;;;;5062612;28;20029;-78
2021/12/19 11:39:36;;;;;;;3.65;1.75;;;3.90;99.90;;;;;;5057381;28;20330;-79
2021/12/19 11:42:11;;;;;;;4.32;2.03;;;3.80;99.90;;;;;;5060826;28;20110;-79
2021/12/19 11:45:35;;;;;;;4.15;2.20;;;3.80;99.90;;;;;;5061830;28;20025;-80
2021/12/19 11:47:45;;;;;;;6.03;2.72;;;3.70;99.90;;;;;;4956266;28;20252;-78
2021/12/19 11:50:21;;;;;;;4.88;2.70;;;3.70;99.90;;;;;;4953227;28;20035;-78
2021/12/19 11:52:49;;;;;;;6.38;3.33;;;3.70;99.90;;;;;;4950753;28;20252;-79
2021/12/19 11:55:20;;;;;;;6.20;2.95;;;3.70;99.90;;;;;;4956585;29;20039;-80
2021/12/19 11:58:07;;;;;;;5.78;2.90;;;3.70;99.90;;;;;;4944067;28;20269;-79
2021/12/19 12:00:52;;;;;;;5.57;3.05;;;3.60;99.90;;;;;;4962316;28;20326;-79
2021/12/19 12:03:20;;;;;;;6.30;3.08;;;3.70;99.90;;;;;;5024974;28;20512;-79
2021/12/19 12:05:51;;;;;;;;;;;3.70;99.90;;;;;;4978136;28;20332;-78
2021/12/19 12:08:20;;;;;;;6.80;3.45;;;3.70;99.90;;;;;;4978208;28;20038;-78
2021/12/19 12:10:49;;;;;;;4.78;2.65;;;3.80;99.90;;;;;;4981262;28;20031;-78
2021/12/19 12:13:30;;;;;;;5.18;3.10;;;3.70;99.90;;;;;;4980942;28;20062;-79
2021/12/19 12:16:30;;;;;;;6.50;3.20;;;3.70;99.90;;;;;;4979761;28;20118;-78
2021/12/19 12:19:03;;;;;;;5.85;3.00;;;3.80;99.90;;;;;;4982745;28;20251;-79
2021/12/19 12:21:39;;;;;;;6.18;2.90;;;3.80;99.90;;;;;;4985485;28;20030;-79
2021/12/19 12:24:07;;;;;;;5.72;2.83;;;3.80;99.90;;;;;;4978767;28;20026;-78
2021/12/19 12:26:56;;;;;;;6.22;3.30;;;3.70;99.90;;;;;;4980834;28;20057;-78
2021/12/19 12:29:23;;;;;;;6.10;3.40;;;3.60;99.90;;;;;;4979337;28;20027;-79
2021/12/19 12:31:49;;;;;;;6.22;3.50;;;3.50;99.90;;;;;;4976268;28;20237;-81
2021/12/19 12:34:17;;;;;;;6.65;3.58;;;3.50;99.90;;;;;;4960079;29;20047;-80
2021/12/19 12:36:44;;;;;;;7.23;3.50;;;3.50;99.90;;;;;;4973742;28;20035;-78
2021/12/19 12:39:24;;;;;;;7.55;3.80;;;3.50;99.90;;;;;;4969177;28;20468;-78
2021/12/19 12:42:00;;;;;;;6.90;3.38;;;3.50;99.90;;;;;;4995193;28;20256;-79
2021/12/19 12:44:27;;;;;;;6.78;4.07;;;3.50;99.90;;;;;;4995464;28;20233;-80
2021/12/19 12:46:53;;;;;;;7.95;4.00;;;3.50;99.90;;;;;;4980317;28;20039;-80
2021/12/19 12:49:26;;;;;;;6.50;3.83;;;3.60;99.90;;;;;;4981338;28;20316;-81
2021/12/19 12:51:57;;;;;;;6.82;3.38;;;3.70;99.90;;;;;;4974166;28;20034;-80
2021/12/19 12:54:30;;;;;;;5.53;2.95;;;3.70;99.90;;;;;;4979478;28;20050;-78
2021/12/19 12:56:59;;;;;;;6.78;3.33;;;3.80;99.90;;;;;;4987996;28;20071;-79
2021/12/19 12:59:31;;;;;;;6.40;3.47;;;3.90;99.90;;;;;;4943680;28;20214;-80
2021/12/19 13:02:19;;;;;;;7.78;3.55;;;3.80;99.90;;;;;;4952230;28;20104;-81
2021/12/19 13:04:50;;;;;;;6.60;3.50;;;3.70;99.90;;;;;;4956656;28;20030;-79
2021/12/19 13:07:24;;;;;;;6.68;3.85;;;3.80;99.90;;;;;;4975733;28;20061;-79
2021/12/19 13:09:52;;;;;;;6.82;3.80;;;3.90;99.90;;;;;;4942231;28;20320;-79
2021/12/19 13:12:29;;;;;;;6.85;4.05;;;3.80;99.90;;;;;;4994939;28;20041;-78
2021/12/19 13:14:58;;;;;;;6.57;3.60;;;3.80;99.90;;;;;;4981062;28;20037;-81
2021/12/19 13:17:26;;;;;;;6.05;3.13;;;3.80;99.90;;;;;;4995069;28;20046;-80
2021/12/19 13:20:06;;;;;;;6.28;3.30;;;3.80;99.90;;;;;;4974054;28;20570;-79
2021/12/19 13:22:34;;;;;;;7.88;4.22;;;3.90;99.90;;;;;;4974013;28;20074;-80
2021/12/19 13:25:13;;;;;;;7.55;4.35;;;3.90;99.90;;;;;;4962540;28;20041;-78
2021/12/19 13:27:44;;;;;;;6.30;3.55;;;3.90;99.90;;;;;;4961327;28;20032;-79
2021/12/19 13:30:13;;;;;;;6.60;3.72;;;3.90;99.90;;;;;;4974756;28;20035;-80
2021/12/19 13:32:49;;;;;;;6.35;3.80;;;3.90;99.90;;;;;;4961191;29;20313;-80
2021/12/19 13:35:21;;;;;;;6.47;3.40;;;3.90;99.90;;;;;;4960058;29;20039;-78
2021/12/19 13:37:53;;;;;;;6.50;4.15;;;4.10;99.90;;;;;;4977143;28;20039;-79
2021/12/19 13:40:21;;;;;;;6.22;3.33;;;4.00;99.90;;;;;;4994949;28;20038;-78
2021/12/19 13:42:53;;;;;;;7.85;4.78;;;3.70;99.90;;;;;;4979477;28;20038;-80
2021/12/19 13:45:35;;;;;;;7.10;4.15;;;3.70;99.90;;;;;;4980412;28;20039;-80
2021/12/19 13:48:03;;;;;;;8.55;4.60;;;3.70;99.90;;;;;;4983030;28;20023;-80
2021/12/19 13:50:32;;;;;;;8.10;4.60;;;3.60;99.90;;;;;;4998274;28;20049;-78
2021/12/19 13:52:58;;;;;;;7.72;4.60;;;3.50;99.90;;;;;;4998058;28;20208;-80
2021/12/19 13:56:02;;;;;;;9.75;5.22;;;3.70;99.90;;;;;;4983759;28;20031;-81
2021/12/19 13:59:06;;;;;;;7.45;4.15;;;3.70;99.90;;;;;;4963046;28;20340;-81
2021/12/19 14:02:09;;;;;;;8.43;4.53;;;3.80;99.90;;;;;;4963821;28;20035;-79
2021/12/19 14:05:13;;;;;;;6.82;3.70;;;3.80;99.90;;;;;;4966974;28;20108;-80
2021/12/19 14:08:17;;;;;;;8.43;4.85;;;3.80;99.90;;;;;;4961688;28;20293;-78